Dobbins Air Reserve Base Airport Marietta US
ICAO: KMGE
IATA: MGE
Category: Large
Scheduled Services: No

Elevation: 1068 ft
TransAlt. 18000 ft.

Airport Communications:
ATLANTA APP/DEP:121
ATIS:26.95
GND:125.3
NAVY OPS:34.02
ARNG OPS:47
PMSV METRO:27.475
94AW COMD POST:37.952
PTD:139.3
TWR:120.75

KMGE Zoom In..

If you have problems with the map follow the link
https://www.worldairports.se/pages/airport.php?
ICAO=KMGE

Runways:

(A) RW 11 length 10002 ft width 300 ft
ILS 109.70 / hdg 109

(B) RW 29 length 10002 ft width 300 ft
ILS 111.35 / hdg 289

Location; KMGE
Day. 18 / Time. 21.56 Zulu
* Altimeter: 30.05
* Temperature: 13° c. 55.4°f.
* Wind from: 220° Speed 02 kn.
Dewpoint: 09° c.
Visibility: 10 Statute Miles.
Clouds: Scattered 2000 ft.
Clouds: Broken 4000 ft.

KMGE 182156Z 22002KT 10SM SCT020 BKN040 13/09 A3005 RMK AO2A SLP178 T01340087 $


Wind From 220°
Speed 02 kn.

 
 
jpsmedia.com for Web Design worldairports.se 2019   terms of use